createdAt,value
2022-10-18T00:02:12.244Z,11.77
2022-10-18T00:04:39.030Z,8.93
2022-10-18T00:07:05.855Z,11.93
2022-10-18T00:09:32.493Z,12.68
2022-10-18T00:11:59.110Z,14.18
2022-10-18T00:14:25.743Z,9.88
2022-10-18T00:16:52.325Z,8.77
2022-10-18T00:19:18.890Z,8.30
2022-10-18T00:24:17.164Z,9.35
2022-10-18T00:26:44.536Z,10.00
2022-10-18T00:29:14.283Z,10.90
2022-10-18T00:31:42.704Z,12.10
2022-10-18T00:34:15.238Z,9.98
2022-10-18T00:36:42.853Z,8.82
2022-10-18T00:39:15.407Z,9.68
2022-10-18T00:41:42.212Z,11.57
2022-10-18T00:44:11.560Z,10.82
2022-10-18T00:46:43.766Z,10.70
2022-10-18T00:49:21.687Z,11.07
2022-10-18T00:51:58.029Z,9.80
2022-10-18T00:54:25.281Z,12.30
2022-10-18T00:56:52.289Z,12.73
2022-10-18T00:59:19.830Z,13.32
2022-10-18T01:01:46.603Z,15.77
2022-10-18T01:04:17.342Z,13.70
2022-10-18T01:07:32.035Z,11.13
2022-10-18T01:10:27.762Z,11.30
2022-10-18T01:13:03.500Z,11.48
2022-10-18T01:15:42.252Z,11.80
2022-10-18T01:18:20.905Z,13.48
2022-10-18T01:21:09.950Z,13.40
2022-10-18T01:23:57.839Z,12.02
2022-10-18T01:26:58.970Z,12.48
2022-10-18T01:30:11.636Z,10.93
2022-10-18T01:32:49.696Z,14.98
2022-10-18T01:35:21.247Z,11.23
2022-10-18T01:37:50.221Z,12.70
2022-10-18T01:40:20.717Z,13.63
2022-10-18T01:42:49.291Z,14.52
2022-10-18T01:45:17.154Z,14.82
2022-10-18T01:47:45.487Z,10.88
2022-10-18T01:50:12.432Z,14.27
2022-10-18T01:52:57.393Z,12.82
2022-10-18T01:55:39.044Z,11.45
2022-10-18T01:58:31.000Z,12.13
2022-10-18T02:01:08.486Z,13.48
2022-10-18T02:03:43.115Z,13.55
2022-10-18T02:06:23.632Z,11.95
2022-10-18T02:09:13.635Z,12.02
2022-10-18T02:11:43.179Z,15.93
2022-10-18T02:14:12.889Z,12.25
2022-10-18T02:16:49.215Z,12.15
2022-10-18T02:19:36.874Z,13.25
2022-10-18T02:22:04.651Z,14.05
2022-10-18T02:24:39.527Z,15.77
2022-10-18T02:27:06.410Z,15.50
2022-10-18T02:29:33.864Z,16.35
2022-10-18T02:32:14.745Z,12.95
2022-10-18T02:34:49.130Z,14.20
2022-10-18T02:37:17.303Z,14.20
2022-10-18T02:39:47.584Z,13.10
2022-10-18T02:42:15.042Z,15.25
2022-10-18T02:44:41.737Z,13.95
2022-10-18T02:47:10.588Z,13.23
2022-10-18T02:49:37.134Z,14.82
2022-10-18T02:52:03.860Z,14.10
2022-10-18T02:54:30.501Z,13.52
2022-10-18T02:56:57.140Z,13.43
2022-10-18T02:59:23.697Z,16.13
2022-10-18T03:01:50.316Z,12.75
2022-10-18T03:04:17.013Z,13.10
2022-10-18T03:06:43.718Z,13.73
2022-10-18T03:09:10.327Z,14.00
2022-10-18T03:11:36.933Z,12.40
2022-10-18T03:14:03.583Z,13.32
2022-10-18T03:16:30.434Z,14.20
2022-10-18T03:18:57.028Z,11.80
2022-10-18T03:21:24.010Z,14.43
2022-10-18T03:23:50.674Z,11.98
2022-10-18T03:26:17.434Z,14.88
2022-10-18T03:28:44.053Z,15.32
2022-10-18T03:31:10.670Z,12.18
2022-10-18T03:33:37.259Z,14.68
2022-10-18T03:36:04.099Z,12.48
2022-10-18T03:38:30.921Z,13.55
2022-10-18T03:40:57.549Z,13.48
2022-10-18T03:43:24.207Z,14.70
2022-10-18T03:45:51.252Z,12.68
2022-10-18T03:48:18.133Z,12.75
2022-10-18T03:50:44.801Z,12.52
2022-10-18T03:53:11.817Z,12.10
2022-10-18T03:55:38.966Z,15.38
2022-10-18T03:58:05.612Z,15.15
2022-10-18T04:00:32.872Z,13.02
2022-10-18T04:02:59.594Z,14.57
2022-10-18T04:05:28.202Z,13.68
2022-10-18T04:07:55.043Z,11.73
2022-10-18T04:10:21.944Z,11.32
2022-10-18T04:12:48.511Z,13.82
2022-10-18T04:15:15.203Z,13.15
2022-10-18T04:17:42.020Z,11.80
2022-10-18T04:20:09.010Z,13.60
2022-10-18T04:22:35.725Z,11.90
2022-10-18T04:25:02.383Z,10.88
2022-10-18T04:27:29.079Z,12.75
2022-10-18T04:29:55.972Z,11.90
2022-10-18T04:32:22.813Z,13.32
2022-10-18T04:34:49.363Z,11.10
2022-10-18T04:37:17.198Z,10.60
2022-10-18T04:39:49.838Z,9.02
2022-10-18T04:42:19.395Z,9.25
2022-10-18T04:44:45.997Z,10.48
2022-10-18T04:47:12.633Z,10.05
2022-10-18T04:49:39.393Z,11.02
2022-10-18T04:52:06.372Z,9.57
2022-10-18T04:54:32.995Z,11.35
2022-10-18T04:56:59.683Z,10.40
2022-10-18T04:59:26.335Z,10.07
2022-10-18T05:01:52.978Z,9.80
2022-10-18T05:04:19.597Z,9.90
2022-10-18T05:06:46.742Z,10.25
2022-10-18T05:09:13.343Z,10.93
2022-10-18T05:11:40.025Z,10.55
2022-10-18T05:14:06.629Z,10.88
2022-10-18T05:16:33.150Z,11.45
2022-10-18T05:18:59.737Z,13.05
2022-10-18T05:21:26.294Z,12.45
2022-10-18T05:23:56.235Z,10.07
2022-10-18T05:26:23.040Z,13.18
2022-10-18T05:28:50.522Z,11.98
2022-10-18T05:31:17.791Z,11.52
2022-10-18T05:33:44.350Z,12.15
2022-10-18T05:36:11.201Z,12.63
2022-10-18T05:38:45.391Z,12.02
2022-10-18T05:41:12.885Z,12.02
2022-10-18T05:43:40.557Z,11.38
2022-10-18T05:46:13.538Z,12.57
2022-10-18T05:48:41.878Z,13.57
2022-10-18T05:51:08.593Z,14.88
2022-10-18T05:53:37.403Z,14.52
2022-10-18T05:56:05.451Z,17.42
2022-10-18T05:58:32.211Z,18.73
2022-10-18T06:01:02.333Z,16.23
2022-10-18T06:03:30.601Z,15.98
2022-10-18T06:06:05.523Z,15.20
2022-10-18T06:08:32.535Z,16.92
2022-10-18T06:10:59.271Z,17.65
2022-10-18T06:13:26.106Z,16.20
2022-10-18T06:15:57.389Z,12.90
2022-10-18T06:18:23.999Z,14.48
2022-10-18T06:20:56.527Z,17.52
2022-10-18T06:23:23.058Z,14.27
2022-10-18T06:25:49.631Z,15.02
2022-10-18T06:28:16.826Z,16.98
2022-10-18T06:30:43.854Z,12.32
2022-10-18T06:33:11.945Z,14.25
2022-10-18T06:35:47.586Z,15.52
2022-10-18T06:38:14.124Z,18.05
2022-10-18T06:40:40.665Z,17.17
2022-10-18T06:43:20.169Z,17.83
2022-10-18T06:45:47.623Z,15.55
2022-10-18T06:48:14.306Z,15.45
2022-10-18T06:50:40.918Z,16.85
2022-10-18T06:53:08.923Z,16.45
2022-10-18T06:55:35.946Z,15.15
2022-10-18T06:58:02.760Z,18.23
2022-10-18T07:00:29.389Z,16.02
2022-10-18T07:02:58.356Z,15.32
2022-10-18T07:05:25.098Z,17.08
2022-10-18T07:07:54.298Z,19.83
2022-10-18T07:10:23.806Z,16.00
2022-10-18T07:12:53.483Z,16.38
2022-10-18T07:15:24.004Z,15.60
2022-10-18T07:17:50.730Z,14.27
2022-10-18T07:20:17.563Z,15.40
2022-10-18T07:22:44.119Z,14.23
2022-10-18T07:25:10.665Z,16.95
2022-10-18T07:27:42.235Z,13.00
2022-10-18T07:30:10.699Z,14.93
2022-10-18T07:32:37.500Z,16.73
2022-10-18T07:35:04.467Z,15.27
2022-10-18T07:37:31.254Z,15.27
2022-10-18T07:39:58.047Z,17.27
2022-10-18T07:42:24.931Z,13.77
2022-10-18T07:44:51.519Z,11.02
2022-10-18T07:47:18.148Z,14.25
2022-10-18T07:49:44.683Z,11.30
2022-10-18T07:52:11.696Z,12.02
2022-10-18T07:54:38.360Z,10.93
2022-10-18T07:57:05.247Z,11.57
2022-10-18T07:59:31.872Z,11.77
2022-10-18T08:01:58.520Z,18.42
2022-10-18T08:04:25.101Z,10.60
2022-10-18T08:06:51.748Z,12.65
2022-10-18T08:09:18.291Z,12.25
2022-10-18T08:11:44.809Z,11.20
2022-10-18T08:14:11.346Z,11.48
2022-10-18T08:16:37.879Z,12.18
2022-10-18T08:19:04.685Z,12.68
2022-10-18T08:21:31.518Z,8.68
2022-10-18T08:23:58.060Z,11.18
2022-10-18T08:26:24.732Z,12.13
2022-10-18T08:29:10.270Z,14.93
2022-10-18T08:31:38.229Z,12.45
2022-10-18T08:34:04.777Z,9.65
2022-10-18T08:36:31.436Z,11.48
2022-10-18T08:38:58.035Z,12.45
2022-10-18T08:41:36.827Z,11.50
2022-10-18T08:44:22.771Z,11.65
2022-10-18T08:46:52.956Z,11.20
2022-10-18T08:49:47.146Z,9.77
2022-10-18T08:52:23.979Z,12.32
2022-10-18T08:55:11.411Z,14.55
2022-10-18T08:57:38.033Z,14.82
2022-10-18T09:00:22.540Z,13.65
2022-10-18T09:03:27.993Z,13.52
2022-10-18T09:06:15.983Z,10.82
2022-10-18T09:09:11.121Z,10.75
2022-10-18T09:11:58.148Z,13.05
2022-10-18T09:14:37.672Z,14.88
2022-10-18T09:17:15.968Z,14.48
2022-10-18T09:20:10.595Z,11.73
2022-10-18T09:22:53.382Z,14.93
2022-10-18T09:25:43.203Z,9.98
2022-10-18T09:28:26.161Z,12.55
2022-10-18T09:31:30.353Z,10.70
2022-10-18T09:34:26.476Z,11.43
2022-10-18T09:36:53.449Z,11.80
2022-10-18T09:39:25.530Z,9.82
2022-10-18T09:42:05.060Z,14.30
2022-10-18T09:44:55.025Z,9.43
2022-10-18T09:47:26.358Z,13.88
2022-10-18T09:49:58.968Z,10.57
2022-10-18T09:52:32.773Z,11.60
2022-10-18T09:55:03.313Z,11.40
2022-10-18T09:57:42.033Z,11.45
2022-10-18T10:00:20.845Z,10.40
2022-10-18T10:02:47.501Z,9.32
2022-10-18T10:05:14.934Z,12.43
2022-10-18T10:07:44.458Z,11.60
2022-10-18T10:10:19.499Z,9.75
2022-10-18T10:12:46.395Z,11.65
2022-10-18T10:15:23.404Z,11.52
2022-10-18T10:18:17.743Z,12.98
2022-10-18T10:20:47.214Z,9.40
2022-10-18T10:23:26.370Z,11.75
2022-10-18T10:25:55.533Z,10.40
2022-10-18T10:28:26.938Z,13.00
2022-10-18T10:30:53.575Z,9.98
2022-10-18T10:33:38.509Z,10.15
2022-10-18T10:36:16.364Z,9.48
2022-10-18T10:38:42.875Z,10.73
2022-10-18T10:41:21.602Z,11.65
2022-10-18T10:43:49.574Z,11.83
2022-10-18T10:46:19.127Z,10.93
2022-10-18T10:48:50.298Z,12.05
2022-10-18T10:51:28.755Z,11.23
2022-10-18T10:54:20.381Z,10.68
2022-10-18T10:57:11.185Z,12.35
2022-10-18T10:59:44.832Z,12.35
2022-10-18T11:02:15.143Z,11.02
2022-10-18T11:04:42.460Z,11.30
2022-10-18T11:07:08.961Z,14.47
2022-10-18T11:09:50.898Z,13.73
2022-10-18T11:12:37.935Z,12.85
2022-10-18T11:15:11.667Z,14.13
2022-10-18T11:17:48.657Z,14.65
2022-10-18T11:20:38.192Z,12.07
2022-10-18T11:23:12.863Z,11.60
2022-10-18T11:26:08.895Z,13.10
2022-10-18T11:28:56.507Z,12.10
2022-10-18T11:32:00.924Z,13.13
2022-10-18T11:34:52.829Z,11.40
2022-10-18T11:37:54.771Z,13.98
2022-10-18T11:40:50.783Z,13.45
2022-10-18T11:44:01.864Z,13.80
2022-10-18T11:46:51.799Z,14.43
2022-10-18T11:49:56.171Z,12.17
2022-10-18T11:52:39.342Z,11.85
2022-10-18T11:55:32.056Z,12.75
2022-10-18T11:58:14.537Z,12.07
2022-10-18T12:01:06.379Z,13.32
2022-10-18T12:03:49.781Z,11.45
2022-10-18T12:06:20.735Z,11.40
2022-10-18T12:08:53.076Z,10.68
2022-10-18T12:11:24.711Z,12.57
2022-10-18T12:13:58.847Z,12.68
2022-10-18T12:16:49.904Z,14.70
2022-10-18T12:19:26.351Z,14.70
2022-10-18T12:21:57.208Z,10.52
2022-10-18T12:24:28.419Z,13.20
2022-10-18T12:26:59.562Z,11.67
2022-10-18T12:29:50.640Z,10.48
2022-10-18T12:32:24.520Z,10.75
2022-10-18T12:35:18.425Z,10.68
2022-10-18T12:38:13.660Z,9.20
2022-10-18T12:40:45.858Z,10.20
2022-10-18T12:43:25.558Z,9.35
2022-10-18T12:46:00.616Z,9.70
2022-10-18T12:48:59.591Z,10.25
2022-10-18T12:51:26.207Z,9.52
2022-10-18T12:54:01.803Z,9.85
2022-10-18T12:56:28.360Z,9.45
2022-10-18T12:59:13.657Z,10.60
2022-10-18T13:01:55.309Z,10.93
2022-10-18T13:04:40.304Z,10.27
2022-10-18T13:07:18.989Z,12.40
2022-10-18T13:10:10.297Z,12.77
2022-10-18T13:12:56.783Z,11.05
2022-10-18T13:15:46.467Z,10.98
2022-10-18T13:18:29.113Z,11.82
2022-10-18T13:21:21.223Z,11.40
2022-10-18T13:24:26.225Z,15.02
2022-10-18T13:27:24.326Z,12.57
2022-10-18T13:30:02.887Z,11.55
2022-10-18T13:33:29.696Z,11.50
2022-10-18T13:36:00.726Z,12.68
2022-10-18T13:38:43.763Z,11.32
2022-10-18T13:41:14.095Z,10.07
2022-10-18T13:44:23.654Z,11.30
2022-10-18T13:46:50.208Z,12.52
2022-10-18T13:49:38.184Z,11.13
2022-10-18T13:52:45.743Z,13.10
2022-10-18T13:55:42.420Z,11.40
2022-10-18T13:58:48.813Z,12.55
2022-10-18T14:01:40.272Z,11.23
2022-10-18T14:04:22.560Z,8.93
2022-10-18T14:06:51.880Z,10.82
2022-10-18T14:09:45.083Z,12.25
2022-10-18T14:12:35.298Z,13.98
2022-10-18T14:15:20.526Z,13.48
2022-10-18T14:18:16.026Z,14.93
2022-10-18T14:21:12.330Z,15.45
2022-10-18T14:23:44.559Z,15.18
2022-10-18T14:26:16.755Z,13.63
2022-10-18T14:29:00.561Z,13.32
2022-10-18T14:31:27.937Z,14.18
2022-10-18T14:33:58.292Z,12.65
2022-10-18T14:36:27.811Z,14.98
2022-10-18T14:39:03.593Z,12.18
2022-10-18T14:41:47.310Z,12.43
2022-10-18T14:44:17.545Z,11.90
2022-10-18T14:46:52.382Z,11.60
2022-10-18T14:49:20.474Z,12.15
2022-10-18T14:51:51.726Z,14.05
2022-10-18T14:54:37.321Z,11.70
2022-10-18T14:57:05.570Z,13.52
2022-10-18T14:59:51.532Z,13.00
2022-10-18T15:02:26.112Z,14.32
2022-10-18T15:04:59.156Z,16.85
2022-10-18T15:07:29.128Z,15.43
2022-10-18T15:09:58.828Z,14.38
2022-10-18T15:12:26.664Z,16.52
2022-10-18T15:14:54.295Z,14.65
2022-10-18T15:17:22.867Z,12.20
2022-10-18T15:20:03.326Z,14.70
2022-10-18T15:22:33.592Z,18.77
2022-10-18T15:25:29.448Z,17.83
2022-10-18T15:27:59.463Z,15.15
2022-10-18T15:30:38.415Z,13.20
2022-10-18T15:33:10.549Z,12.07
2022-10-18T15:35:39.058Z,13.30
2022-10-18T15:38:24.260Z,19.05
2022-10-18T15:40:51.002Z,15.88
2022-10-18T15:43:23.644Z,16.90
2022-10-18T15:46:01.722Z,19.80
2022-10-18T15:48:38.248Z,15.32
2022-10-18T15:51:27.688Z,18.77
2022-10-18T15:53:54.627Z,13.30
2022-10-18T15:56:35.741Z,15.63
2022-10-18T15:59:21.055Z,17.00
2022-10-18T16:01:47.918Z,17.23
2022-10-18T16:04:18.322Z,18.77
2022-10-18T16:06:44.903Z,13.63
2022-10-18T16:09:17.342Z,15.87
2022-10-18T16:11:45.025Z,12.70
2022-10-18T16:14:11.586Z,15.87
2022-10-18T16:16:40.109Z,16.20
2022-10-18T16:19:07.880Z,18.37
2022-10-18T16:21:37.718Z,16.90
2022-10-18T16:24:04.692Z,18.40
2022-10-18T16:26:31.950Z,15.13
2022-10-18T16:28:59.312Z,15.43
2022-10-18T16:31:28.932Z,15.80
2022-10-18T16:33:57.098Z,16.93
2022-10-18T16:36:30.298Z,17.17
2022-10-18T16:39:00.721Z,17.13
2022-10-18T16:41:27.816Z,19.33
2022-10-18T16:43:54.521Z,16.20
2022-10-18T16:46:24.528Z,22.77
2022-10-18T16:48:51.519Z,20.70
2022-10-18T16:51:18.356Z,17.27
2022-10-18T16:53:45.451Z,21.23
2022-10-18T16:56:18.088Z,18.70
2022-10-18T16:58:45.327Z,24.63
2022-10-18T17:01:14.339Z,18.40
2022-10-18T17:03:41.318Z,18.57
2022-10-18T17:06:17.587Z,20.93
2022-10-18T17:08:44.686Z,19.43
2022-10-18T17:11:12.730Z,20.03
2022-10-18T17:13:39.311Z,20.23
2022-10-18T17:16:07.032Z,22.90
2022-10-18T17:18:33.689Z,24.97
2022-10-18T17:21:03.123Z,20.47
2022-10-18T17:23:30.160Z,22.83
2022-10-18T17:26:06.843Z,21.57
2022-10-18T17:28:38.010Z,20.53
2022-10-18T17:31:07.153Z,18.43
2022-10-18T17:33:33.956Z,20.77
2022-10-18T17:36:00.514Z,20.63
2022-10-18T17:38:27.176Z,24.83
2022-10-18T17:40:54.499Z,20.73
2022-10-18T17:43:21.044Z,22.43
2022-10-18T17:45:55.567Z,21.87
2022-10-18T17:48:22.799Z,21.37
2022-10-18T17:50:49.359Z,21.70
2022-10-18T17:53:22.813Z,23.33
2022-10-18T17:55:49.530Z,22.60
2022-10-18T17:58:16.207Z,20.30
2022-10-18T18:00:42.782Z,26.73
2022-10-18T18:03:09.502Z,20.23
2022-10-18T18:05:36.330Z,20.70
2022-10-18T18:08:05.186Z,27.23
2022-10-18T18:10:35.426Z,20.83
2022-10-18T18:13:02.748Z,22.90
2022-10-18T18:15:29.732Z,26.90
2022-10-18T18:17:57.639Z,22.33
2022-10-18T18:20:25.743Z,28.33
2022-10-18T18:22:52.664Z,25.50
2022-10-18T18:25:19.395Z,22.37
2022-10-18T18:27:46.204Z,22.77
2022-10-18T18:30:13.043Z,23.37
2022-10-18T18:32:39.864Z,25.17
2022-10-18T18:35:06.880Z,25.27
2022-10-18T18:37:33.565Z,23.90
2022-10-18T18:40:00.170Z,25.97
2022-10-18T18:42:26.823Z,18.43
2022-10-18T18:44:53.343Z,24.10
2022-10-18T18:47:21.869Z,18.73
2022-10-18T18:49:48.880Z,19.87
2022-10-18T18:52:15.485Z,25.77
2022-10-18T18:54:42.105Z,22.57
2022-10-18T18:57:08.760Z,18.87
2022-10-18T18:59:35.519Z,24.13
2022-10-18T19:02:02.131Z,14.07
2022-10-18T19:04:29.116Z,17.30
2022-10-18T19:06:55.815Z,21.93
2022-10-18T19:09:22.978Z,19.03
2022-10-18T19:11:52.880Z,16.53
2022-10-18T19:14:23.621Z,17.53
2022-10-18T19:16:51.725Z,15.37
2022-10-18T19:19:21.058Z,13.57
2022-10-18T19:21:53.510Z,15.73
2022-10-18T19:24:21.890Z,11.63
2022-10-18T19:26:51.502Z,13.60
2022-10-18T19:29:23.527Z,14.30
2022-10-18T19:31:52.046Z,12.37
2022-10-18T19:34:20.358Z,14.87
2022-10-18T19:36:48.512Z,13.20
2022-10-18T19:39:21.033Z,14.33
2022-10-18T19:41:52.033Z,14.33
2022-10-18T19:44:20.150Z,13.90
2022-10-18T19:46:47.552Z,15.97
2022-10-18T19:49:14.615Z,14.40
2022-10-18T19:51:41.177Z,12.07
2022-10-18T19:54:07.942Z,13.57
2022-10-18T19:56:34.490Z,14.30
2022-10-18T19:59:01.414Z,13.20
2022-10-18T20:01:29.228Z,17.27
2022-10-18T20:03:58.401Z,12.33
2022-10-18T20:06:25.001Z,12.20
2022-10-18T20:08:51.774Z,14.27
2022-10-18T20:11:25.266Z,14.27
2022-10-18T20:13:52.728Z,15.27
2022-10-18T20:16:26.906Z,12.87
2022-10-18T20:18:56.794Z,16.53
2022-10-18T20:21:23.356Z,12.37
2022-10-18T20:23:49.923Z,13.80
2022-10-18T20:26:20.826Z,13.53
2022-10-18T20:28:49.408Z,11.53
2022-10-18T20:31:19.023Z,12.97
2022-10-18T20:33:47.045Z,14.13
2022-10-18T20:36:16.262Z,11.27
2022-10-18T20:38:45.360Z,10.33
2022-10-18T20:41:17.686Z,15.17
2022-10-18T20:43:45.298Z,12.33
2022-10-18T20:46:11.952Z,11.37
2022-10-18T20:48:38.887Z,15.37
2022-10-18T20:51:10.364Z,16.33
2022-10-18T20:53:37.716Z,13.23
2022-10-18T20:56:12.963Z,11.20
2022-10-18T20:58:41.509Z,11.83
2022-10-18T21:01:09.034Z,13.13
2022-10-18T21:03:41.504Z,11.20
2022-10-18T21:06:13.200Z,10.10
2022-10-18T21:08:39.832Z,12.77
2022-10-18T21:11:07.146Z,12.43
2022-10-18T21:13:33.896Z,12.00
2022-10-18T21:16:01.022Z,13.70
2022-10-18T21:18:29.660Z,13.70
2022-10-18T21:20:56.383Z,13.27
2022-10-18T21:23:22.958Z,11.00
2022-10-18T21:25:49.651Z,9.67
2022-10-18T21:28:17.967Z,9.40
2022-10-18T21:30:44.511Z,11.93
2022-10-18T21:33:11.131Z,10.00
2022-10-18T21:35:38.597Z,12.20
2022-10-18T21:38:05.605Z,10.83
2022-10-18T21:40:35.069Z,11.60
2022-10-18T21:43:01.661Z,10.43
2022-10-18T21:45:28.315Z,9.33
2022-10-18T21:47:54.891Z,10.43
2022-10-18T21:50:21.487Z,11.07
2022-10-18T21:52:48.672Z,10.13
2022-10-18T21:55:15.322Z,8.70
2022-10-18T21:57:41.921Z,9.53
2022-10-18T22:00:09.122Z,11.67
2022-10-18T22:02:35.898Z,14.53
2022-10-18T22:05:03.819Z,18.83
2022-10-18T22:07:32.048Z,9.57
2022-10-18T22:09:58.776Z,7.77
2022-10-18T22:12:25.499Z,8.20
2022-10-18T22:14:52.040Z,12.10
2022-10-18T22:17:18.830Z,9.07
2022-10-18T22:19:47.212Z,15.80
2022-10-18T22:22:13.908Z,12.17
2022-10-18T22:24:46.334Z,7.20
2022-10-18T22:27:12.959Z,8.10
2022-10-18T22:29:39.627Z,6.93
2022-10-18T22:32:06.262Z,8.27
2022-10-18T22:34:32.835Z,7.53
2022-10-18T22:36:59.502Z,13.97
2022-10-18T22:39:26.060Z,11.53
2022-10-18T22:41:55.864Z,14.23
2022-10-18T22:44:23.041Z,9.33
2022-10-18T22:46:49.801Z,9.80
2022-10-18T22:49:16.441Z,7.90
2022-10-18T22:51:43.252Z,7.03
2022-10-18T22:54:10.114Z,7.63
2022-10-18T22:56:36.702Z,8.47
2022-10-18T22:59:03.685Z,11.87
2022-10-18T23:01:30.326Z,7.47
2022-10-18T23:03:59.909Z,9.70
2022-10-18T23:06:36.834Z,6.93
2022-10-18T23:09:07.670Z,9.07
2022-10-18T23:11:35.409Z,6.50
2022-10-18T23:14:03.951Z,7.27
2022-10-18T23:16:31.288Z,7.53
2022-10-18T23:18:59.071Z,6.47
2022-10-18T23:21:28.011Z,11.37
2022-10-18T23:23:55.117Z,6.73
2022-10-18T23:26:24.055Z,8.07
2022-10-18T23:28:52.264Z,12.63
2022-10-18T23:31:24.645Z,7.10
2022-10-18T23:33:54.618Z,11.30
2022-10-18T23:36:22.514Z,13.30
2022-10-18T23:38:49.133Z,8.50
2022-10-18T23:41:16.825Z,10.90
2022-10-18T23:43:44.141Z,8.90
2022-10-18T23:46:11.796Z,7.40
2022-10-18T23:48:38.581Z,9.90
2022-10-18T23:51:06.316Z,8.70
2022-10-18T23:53:33.823Z,10.23
2022-10-18T23:56:03.589Z,9.77
2022-10-18T23:58:32.060Z,8.93
